Time;durP1;ratioP1;P1;durP2;ratioP2;P2;SDS_P1;SDS_P2;PMS_P1;PMS_P2;Temp;Humidity;BMP_temperature;BMP_pressure;BME280_temperature;BME280_humidity;BME280_pressure;Samples;Min_cycle;Max_cycle;Signal;HPM_P1;HPM_P2
2022/12/20 05:04:47;;;;;;;11.30;8.20;;;3.70;99.90;;;;;;5506199;23;20580;-61
2022/12/20 05:07:13;;;;;;;10.07;6.50;;;3.80;99.90;;;;;;5006419;28;20291;-61
2022/12/20 05:09:39;;;;;;;9.80;8.87;;;3.90;99.90;;;;;;4974699;28;20177;-60
2022/12/20 05:12:04;;;;;;;12.43;8.67;;;3.90;99.90;;;;;;4974931;28;20176;-62
2022/12/20 05:14:30;;;;;;;15.37;8.60;;;3.90;99.90;;;;;;4965290;28;20193;-60
2022/12/20 05:16:55;;;;;;;10.93;7.53;;;3.90;99.90;;;;;;4955845;28;20653;-60
2022/12/20 05:19:21;;;;;;;9.23;7.67;;;3.90;99.90;;;;;;4955635;28;20173;-60
2022/12/20 05:27:15;;;;;;;12.65;9.25;;;4.00;99.90;;;;;;4955585;29;20211;-61
2022/12/20 05:29:40;;;;;;;13.47;8.30;;;4.00;99.90;;;;;;4955267;28;20168;-62
2022/12/20 05:32:06;;;;;;;9.30;8.10;;;4.00;99.90;;;;;;4955604;28;20658;-62
2022/12/20 05:34:31;;;;;;;9.40;8.03;;;4.00;99.90;;;;;;4953973;28;20189;-62
2022/12/20 05:36:57;;;;;;;8.67;6.60;;;4.00;99.90;;;;;;4955215;28;20177;-62
2022/12/20 05:39:23;;;;;;;9.97;7.47;;;4.10;99.90;;;;;;4955801;28;20177;-62
2022/12/20 05:41:49;;;;;;;11.47;7.40;;;4.10;99.90;;;;;;4955294;28;20184;-61
2022/12/20 05:44:15;;;;;;;11.55;8.00;;;4.10;99.90;;;;;;4955223;28;20201;-61
2022/12/20 05:46:41;;;;;;;9.75;7.97;;;4.10;99.90;;;;;;4955457;28;20216;-61
2022/12/20 05:49:06;;;;;;;8.37;6.93;;;4.10;99.90;;;;;;4955511;28;20546;-62
2022/12/20 05:51:32;;;;;;;8.60;6.47;;;4.10;99.90;;;;;;4955299;28;20480;-62
2022/12/20 05:53:58;;;;;;;10.27;8.37;;;4.10;99.90;;;;;;4955018;28;20192;-62
2022/12/20 05:56:23;;;;;;;8.70;7.60;;;4.10;99.90;;;;;;4959885;28;20172;-62
2022/12/20 05:58:49;;;;;;;10.67;7.87;;;4.10;99.90;;;;;;4974390;28;20181;-62
2022/12/20 06:01:14;;;;;;;12.40;8.00;;;4.10;99.90;;;;;;4974523;28;20168;-66
2022/12/20 06:03:40;;;;;;;10.70;6.40;;;4.00;99.90;;;;;;4972896;28;20949;-65
2022/12/20 06:06:06;;;;;;;10.63;7.47;;;4.00;99.90;;;;;;4967408;28;20186;-66
2022/12/20 06:08:32;;;;;;;11.10;8.30;;;4.00;99.90;;;;;;4954949;28;20347;-65
2022/12/20 06:10:57;;;;;;;11.40;7.53;;;4.00;99.90;;;;;;4955008;28;20259;-65
2022/12/20 06:13:23;;;;;;;10.53;7.77;;;4.00;99.90;;;;;;4954578;29;20588;-65
2022/12/20 06:15:48;;;;;;;9.80;8.20;;;4.00;99.90;;;;;;4957389;28;20178;-65
2022/12/20 06:18:14;;;;;;;9.27;7.93;;;4.00;99.90;;;;;;4974383;28;20232;-65
2022/12/20 06:20:40;;;;;;;14.93;7.83;;;4.00;99.90;;;;;;4973151;28;20184;-65
2022/12/20 06:23:06;;;;;;;10.63;7.23;;;3.90;99.90;;;;;;4973497;28;20180;-65
2022/12/20 06:25:32;;;;;;;6.90;5.38;;;4.00;99.90;;;;;;4962270;28;20208;-64
2022/12/20 06:27:57;;;;;;;8.43;7.57;;;4.00;99.90;;;;;;4954816;29;20662;-65
2022/12/20 06:30:23;;;;;;;10.53;8.70;;;4.00;99.90;;;;;;4954968;29;20762;-65
2022/12/20 06:32:49;;;;;;;11.07;7.55;;;4.20;99.90;;;;;;4954442;28;20283;-66
2022/12/20 06:35:15;;;;;;;9.23;5.93;;;4.30;99.90;;;;;;4954419;29;20198;-66
2022/12/20 06:37:41;;;;;;;12.43;8.03;;;4.40;99.90;;;;;;4954801;28;20260;-64
2022/12/20 06:40:11;;;;;;;8.35;5.85;;;4.50;99.90;;;;;;4954840;29;20169;-65
2022/12/20 06:42:37;;;;;;;8.68;5.53;;;4.50;99.90;;;;;;4958185;29;20631;-63
2022/12/20 06:45:04;;;;;;;10.17;7.43;;;4.60;99.90;;;;;;4958179;29;20221;-63
2022/12/20 06:47:30;;;;;;;9.07;7.63;;;4.70;99.90;;;;;;4958217;29;20464;-62
2022/12/20 06:49:55;;;;;;;6.40;5.80;;;4.80;99.90;;;;;;4958291;29;20178;-64
2022/12/20 06:52:21;;;;;;;7.10;6.13;;;4.90;99.90;;;;;;4958199;29;20201;-64
2022/12/20 06:54:47;;;;;;;7.10;6.40;;;5.00;99.90;;;;;;4957875;29;20670;-64
2022/12/20 06:57:12;;;;;;;6.50;5.93;;;5.10;99.90;;;;;;4958192;29;20237;-64
2022/12/20 06:59:38;;;;;;;7.53;6.87;;;5.20;99.90;;;;;;4958111;29;20177;-65
2022/12/20 07:02:03;;;;;;;9.93;8.03;;;5.20;99.90;;;;;;4956853;29;20176;-64
2022/12/20 07:04:29;;;;;;;10.53;7.20;;;5.30;99.90;;;;;;4957651;29;20220;-64
2022/12/20 07:06:56;;;;;;;11.43;8.07;;;5.30;99.90;;;;;;4956511;29;20207;-65
2022/12/20 07:09:21;;;;;;;9.68;6.57;;;5.30;99.90;;;;;;4958113;28;20169;-64
2022/12/20 07:11:47;;;;;;;11.93;7.27;;;5.30;99.90;;;;;;4957882;29;20173;-64
2022/12/20 07:14:13;;;;;;;9.33;6.43;;;5.40;99.90;;;;;;4957310;29;20927;-63
2022/12/20 07:16:40;;;;;;;8.07;6.77;;;5.30;99.90;;;;;;4988859;28;20247;-63
2022/12/20 07:19:09;;;;;;;8.77;7.53;;;5.30;99.90;;;;;;4956580;29;20177;-63
2022/12/20 07:21:34;;;;;;;6.97;5.97;;;5.30;99.90;;;;;;4958166;29;20265;-64
2022/12/20 07:24:00;;;;;;;7.27;6.20;;;5.30;99.90;;;;;;4957417;29;20228;-64
2022/12/20 07:26:25;;;;;;;7.80;7.00;;;5.30;99.90;;;;;;4957168;29;20176;-63
2022/12/20 07:28:51;;;;;;;9.90;6.20;;;5.30;99.90;;;;;;4957722;29;20164;-63
2022/12/20 07:31:16;;;;;;;8.37;7.07;;;5.40;99.90;;;;;;4957407;29;20655;-65
2022/12/20 07:33:42;;;;;;;8.87;6.50;;;5.30;99.90;;;;;;4957226;29;20190;-65
2022/12/20 07:36:11;;;;;;;8.80;7.07;;;5.30;99.90;;;;;;4957460;29;20161;-61
2022/12/20 07:38:36;;;;;;;10.45;6.85;;;5.20;99.90;;;;;;4957625;28;20187;-65
2022/12/20 07:41:11;;;;;;;8.20;6.67;;;5.20;99.90;;;;;;4957726;29;20695;-63
2022/12/20 07:43:36;;;;;;;8.73;6.20;;;5.20;99.90;;;;;;4957200;29;20172;-64
2022/12/20 07:46:04;;;;;;;9.77;7.07;;;5.10;99.90;;;;;;4956184;29;20237;-65
2022/12/20 07:48:29;;;;;;;9.45;7.35;;;5.10;99.90;;;;;;4956990;28;20711;-65
2022/12/20 07:51:04;;;;;;;6.43;5.80;;;5.10;99.90;;;;;;4957347;29;20220;-65
2022/12/20 07:53:33;;;;;;;7.43;6.20;;;5.00;99.90;;;;;;4956454;28;20189;-63
2022/12/20 07:56:00;;;;;;;9.02;6.78;;;5.00;99.90;;;;;;4957264;29;20511;-63
2022/12/20 07:58:26;;;;;;;10.40;7.93;;;5.00;99.90;;;;;;4957330;28;20636;-64
2022/12/20 08:00:52;;;;;;;7.60;6.85;;;5.10;99.90;;;;;;4956927;29;20177;-64
2022/12/20 08:03:22;;;;;;;10.10;7.50;;;5.00;99.90;;;;;;4956539;29;20172;-64
2022/12/20 08:05:52;;;;;;;9.55;7.53;;;5.10;99.90;;;;;;4967565;28;20192;-63
2022/12/20 08:08:18;;;;;;;12.93;7.80;;;5.00;99.90;;;;;;4960888;28;20210;-63
2022/12/20 08:10:45;;;;;;;7.25;6.55;;;5.00;99.90;;;;;;4956998;29;20577;-64
2022/12/20 08:13:11;;;;;;;7.78;6.38;;;5.10;99.90;;;;;;4956647;28;20169;-65
2022/12/20 08:15:36;;;;;;;13.10;7.18;;;5.10;99.90;;;;;;4956594;28;20246;-62
2022/12/20 08:18:05;;;;;;;7.63;6.93;;;5.00;99.90;;;;;;4956794;28;20171;-64
2022/12/20 08:20:30;;;;;;;6.50;5.93;;;5.10;99.90;;;;;;4956723;28;20169;-64
2022/12/20 08:22:56;;;;;;;8.83;6.87;;;5.10;99.90;;;;;;4956458;29;20177;-64
2022/12/20 08:25:22;;;;;;;8.13;6.73;;;5.30;99.90;;;;;;4956420;28;20201;-63
2022/12/20 08:27:48;;;;;;;7.93;6.30;;;5.40;99.90;;;;;;4956486;29;20283;-64
2022/12/20 08:30:14;;;;;;;10.88;5.85;;;5.50;99.90;;;;;;4956707;28;20262;-64
2022/12/20 08:32:39;;;;;;;9.23;6.97;;;5.60;99.90;;;;;;4956266;29;20208;-65
2022/12/20 08:35:06;;;;;;;9.83;6.97;;;5.70;99.90;;;;;;4956194;28;20207;-64
2022/12/20 08:37:32;;;;;;;8.65;6.95;;;5.70;99.90;;;;;;4956191;29;20190;-63
2022/12/20 08:39:57;;;;;;;9.10;6.97;;;5.70;99.90;;;;;;4956472;28;20258;-64
2022/12/20 08:42:23;;;;;;;10.73;6.77;;;5.70;99.90;;;;;;4956352;29;20414;-65
2022/12/20 08:44:49;;;;;;;11.47;7.57;;;5.60;99.90;;;;;;4956993;28;20194;-64
2022/12/20 08:47:14;;;;;;;13.43;6.70;;;5.60;99.90;;;;;;4975531;28;20291;-62
2022/12/20 08:49:40;;;;;;;8.40;6.43;;;5.60;99.90;;;;;;4975443;28;20521;-65
2022/12/20 08:52:05;;;;;;;7.43;6.20;;;5.50;99.90;;;;;;4975432;28;20290;-63
2022/12/20 08:54:31;;;;;;;9.57;6.97;;;5.50;99.90;;;;;;4974460;28;20201;-64
2022/12/20 08:56:57;;;;;;;9.27;7.13;;;5.60;99.90;;;;;;4958993;28;20280;-65
2022/12/20 08:59:23;;;;;;;10.60;6.50;;;5.50;99.90;;;;;;4954775;29;20179;-65
2022/12/20 09:01:49;;;;;;;10.77;8.37;;;5.50;99.90;;;;;;4955893;29;20762;-63
2022/12/20 09:04:15;;;;;;;7.10;6.03;;;5.60;99.90;;;;;;4964198;28;20205;-63
2022/12/20 09:06:40;;;;;;;10.73;7.20;;;5.70;99.90;;;;;;4975175;28;20186;-65
2022/12/20 09:09:06;;;;;;;6.80;6.10;;;5.80;99.90;;;;;;4974010;28;20202;-64
2022/12/20 09:11:32;;;;;;;9.60;6.20;;;6.00;99.90;;;;;;4975280;28;20648;-63
2022/12/20 09:13:58;;;;;;;6.47;5.90;;;6.00;99.90;;;;;;4974520;28;20207;-64
2022/12/20 09:16:26;;;;;;;8.07;5.78;;;6.20;99.90;;;;;;4975285;28;20824;-64
2022/12/20 09:18:54;;;;;;;9.30;6.80;;;6.40;99.90;;;;;;4963788;28;20647;-64
2022/12/20 09:21:20;;;;;;;8.10;6.95;;;6.50;99.90;;;;;;4955729;28;20172;-65
2022/12/20 09:23:49;;;;;;;7.05;4.82;;;6.50;99.90;;;;;;4954043;29;20192;-65
2022/12/20 09:26:16;;;;;;;7.75;6.00;;;6.60;99.90;;;;;;4955591;29;20187;-65
2022/12/20 09:28:43;;;;;;;10.10;6.57;;;6.60;99.90;;;;;;4963486;28;20230;-64
2022/12/20 09:31:15;;;;;;;7.25;6.63;;;6.60;99.90;;;;;;4974544;28;20693;-64
2022/12/20 09:33:42;;;;;;;8.82;6.55;;;6.60;99.90;;;;;;4973012;28;20251;-64
2022/12/20 09:36:16;;;;;;;10.63;7.30;;;6.60;99.90;;;;;;4974973;28;20178;-63
2022/12/20 09:38:43;;;;;;;14.65;7.63;;;6.50;99.90;;;;;;4974500;28;20261;-64
2022/12/20 09:41:24;;;;;;;7.85;5.82;;;6.50;99.90;;;;;;4974666;28;20631;-63
2022/12/20 09:43:50;;;;;;;7.70;6.80;;;6.50;99.90;;;;;;4974240;28;20196;-63
2022/12/20 09:46:17;;;;;;;7.82;7.03;;;6.50;99.90;;;;;;4974748;28;20198;-65
2022/12/20 09:48:43;;;;;;;11.48;7.38;;;6.40;99.90;;;;;;4969629;28;20212;-66
2022/12/20 09:51:09;;;;;;;9.18;7.07;;;6.40;99.90;;;;;;4955198;29;20179;-64
2022/12/20 09:53:59;;;;;;;13.93;7.17;;;6.40;99.90;;;;;;4954915;29;20173;-63
2022/12/20 09:56:40;;;;;;;8.73;7.38;;;6.30;99.90;;;;;;4955284;29;20202;-64
2022/12/20 09:59:11;;;;;;;12.68;7.55;;;6.40;99.90;;;;;;4955323;28;20642;-62
2022/12/20 10:01:37;;;;;;;7.93;6.60;;;6.30;99.90;;;;;;4958775;28;20175;-65
2022/12/20 10:04:11;;;;;;;10.15;7.72;;;6.40;99.90;;;;;;4974025;28;20193;-63
2022/12/20 10:07:33;;;;;;;7.28;6.38;;;6.50;99.90;;;;;;4974307;28;20258;-65
2022/12/20 10:10:44;;;;;;;7.57;6.22;;;6.60;99.90;;;;;;4914527;29;20196;-63
2022/12/20 10:13:50;;;;;;;8.98;6.28;;;6.80;99.90;;;;;;4908806;29;20189;-63
2022/12/20 10:16:41;;;;;;;16.15;6.18;;;6.90;99.90;;;;;;4976279;28;20175;-62
2022/12/20 10:19:27;;;;;;;6.05;4.38;;;7.10;99.90;;;;;;4972960;28;20169;-62
2022/12/20 10:22:22;;;;;;;5.68;4.47;;;7.40;99.90;;;;;;4958873;29;20535;-61
2022/12/20 10:25:14;;;;;;;4.47;3.85;;;7.60;99.90;;;;;;4989393;28;20192;-63
2022/12/20 10:27:44;;;;;;;6.70;5.15;;;7.80;99.90;;;;;;4956987;28;20207;-62
2022/12/20 10:30:22;;;;;;;4.82;3.05;;;8.00;99.90;;;;;;4956768;28;20180;-63
2022/12/20 10:32:50;;;;;;;3.97;2.28;;;8.20;99.90;;;;;;4957240;29;20168;-62
2022/12/20 10:35:25;;;;;;;3.08;2.78;;;8.50;99.90;;;;;;4957252;29;20197;-63
2022/12/20 10:38:01;;;;;;;3.85;3.58;;;8.70;99.90;;;;;;4957192;29;20195;-61
2022/12/20 10:40:31;;;;;;;3.15;2.92;;;8.90;99.90;;;;;;4957298;28;20642;-63
2022/12/20 10:42:58;;;;;;;5.97;4.03;;;9.10;99.90;;;;;;4960176;29;20244;-63
2022/12/20 10:45:35;;;;;;;2.85;2.65;;;9.30;99.90;;;;;;4960522;29;20212;-63
2022/12/20 10:48:04;;;;;;;3.50;3.03;;;9.30;99.90;;;;;;4959143;29;20229;-63
2022/12/20 10:50:30;;;;;;;4.40;4.10;;;9.40;99.90;;;;;;4959512;28;20176;-61
2022/12/20 10:53:20;;;;;;;5.40;4.90;;;9.40;99.90;;;;;;4990616;28;20227;-61
2022/12/20 10:55:47;;;;;;;4.43;4.03;;;9.10;99.90;;;;;;4960017;29;20168;-64
2022/12/20 10:58:39;;;;;;;5.55;4.75;;;8.90;99.90;;;;;;4958535;29;20180;-63
2022/12/20 11:01:09;;;;;;;4.78;4.00;;;8.70;99.90;;;;;;4972136;28;20203;-62
2022/12/20 11:03:59;;;;;;;6.47;4.07;;;8.50;99.90;;;;;;4977077;28;20176;-63
2022/12/20 11:06:40;;;;;;;6.10;4.15;;;8.40;99.90;;;;;;4977495;28;20198;-62
2022/12/20 11:09:27;;;;;;;5.28;4.28;;;8.40;99.90;;;;;;4977907;28;20533;-62
2022/12/20 11:12:11;;;;;;;6.18;5.38;;;8.40;99.90;;;;;;4979247;28;20230;-63
2022/12/20 11:14:37;;;;;;;5.65;5.15;;;8.30;99.90;;;;;;4978038;28;20574;-63
2022/12/20 11:17:27;;;;;;;6.00;4.95;;;8.20;99.90;;;;;;4978165;28;20222;-64
2022/12/20 11:20:20;;;;;;;6.38;5.53;;;8.20;99.90;;;;;;4968125;28;20179;-63
2022/12/20 11:23:06;;;;;;;6.80;4.70;;;8.40;99.90;;;;;;4957361;29;20185;-63
2022/12/20 11:25:32;;;;;;;4.45;4.05;;;8.50;99.90;;;;;;4957674;29;20191;-63
2022/12/20 11:28:33;;;;;;;5.23;4.83;;;8.50;99.90;;;;;;4960691;28;20200;-62
2022/12/20 11:31:27;;;;;;;4.70;4.30;;;8.50;99.90;;;;;;4958877;28;20538;-62
2022/12/20 11:34:02;;;;;;;5.05;4.65;;;8.60;99.90;;;;;;4957210;29;20185;-61
2022/12/20 11:36:48;;;;;;;5.13;4.63;;;8.50;99.90;;;;;;4957906;29;20180;-63
2022/12/20 11:39:21;;;;;;;6.60;4.93;;;8.50;99.90;;;;;;4957675;29;20729;-62
2022/12/20 11:42:03;;;;;;;6.70;6.10;;;8.50;99.90;;;;;;4957576;29;20183;-62
2022/12/20 11:44:56;;;;;;;7.68;5.68;;;8.50;99.90;;;;;;4957093;28;20220;-61
2022/12/20 11:47:41;;;;;;;6.18;5.55;;;8.50;99.90;;;;;;4957284;28;20189;-61
2022/12/20 11:50:51;;;;;;;6.53;5.03;;;8.50;99.90;;;;;;4957420;28;20181;-62
2022/12/20 11:53:36;;;;;;;15.75;6.90;;;8.60;99.90;;;;;;4956887;29;20191;-62
2022/12/20 11:56:18;;;;;;;6.32;4.82;;;8.70;99.90;;;;;;4957327;29;20173;-63
2022/12/20 11:59:23;;;;;;;6.88;5.55;;;8.70;99.90;;;;;;4957113;28;20627;-64
2022/12/20 12:01:56;;;;;;;6.38;4.90;;;8.80;99.90;;;;;;4957347;29;20631;-62
2022/12/20 12:04:29;;;;;;;6.00;5.40;;;8.70;99.90;;;;;;4956535;28;20699;-61
2022/12/20 12:07:03;;;;;;;4.95;4.40;;;8.70;99.90;;;;;;4961232;28;20207;-62
2022/12/20 12:09:39;;;;;;;5.75;5.22;;;8.60;99.90;;;;;;4959882;28;20181;-65
2022/12/20 12:12:09;;;;;;;7.47;6.13;;;8.50;99.90;;;;;;4956719;29;20572;-65
2022/12/20 12:14:40;;;;;;;6.80;5.75;;;8.40;99.90;;;;;;4956559;29;20189;-65
2022/12/20 12:17:13;;;;;;;6.45;5.90;;;8.30;99.90;;;;;;4955344;29;20260;-66
2022/12/20 12:19:42;;;;;;;8.68;7.07;;;8.30;99.90;;;;;;4956483;28;20668;-66
2022/12/20 12:22:16;;;;;;;669.90;358.10;;;8.20;99.90;;;;;;4956733;29;20324;-65
2022/12/20 12:24:48;;;;;;;35.38;21.23;;;8.30;99.90;;;;;;4956176;28;20328;-65
2022/12/20 12:27:26;;;;;;;8.00;6.47;;;8.30;99.90;;;;;;4956720;28;20547;-66
2022/12/20 12:29:55;;;;;;;5.80;5.25;;;8.30;99.90;;;;;;4956603;29;20181;-66
2022/12/20 12:32:26;;;;;;;6.82;5.95;;;8.30;99.90;;;;;;4973042;28;20300;-64
2022/12/20 12:35:09;;;;;;;8.20;6.28;;;8.40;99.90;;;;;;4936915;29;20261;-66
2022/12/20 12:37:53;;;;;;;8.65;7.78;;;8.40;99.90;;;;;;4953745;29;20275;-65
2022/12/20 12:40:40;;;;;;;7.55;6.20;;;8.40;99.90;;;;;;4956728;28;20180;-65
2022/12/20 12:43:28;;;;;;;7.38;6.70;;;8.40;99.90;;;;;;4956144;29;20192;-64
2022/12/20 12:46:02;;;;;;;8.25;6.22;;;8.50;99.90;;;;;;4959141;28;20243;-66
2022/12/20 12:48:40;;;;;;;8.18;5.80;;;8.50;99.90;;;;;;4974336;28;20200;-65
2022/12/20 12:51:06;;;;;;;7.00;6.30;;;8.60;99.90;;;;;;4974761;28;20167;-66
2022/12/20 12:53:36;;;;;;;7.47;5.65;;;8.60;99.90;;;;;;4975008;28;20231;-64
2022/12/20 12:56:46;;;;;;;5.93;5.38;;;8.70;99.90;;;;;;4975398;28;20287;-67
2022/12/20 12:59:12;;;;;;;7.38;6.68;;;8.70;99.90;;;;;;4915471;29;20188;-69
2022/12/20 13:01:54;;;;;;;10.80;7.40;;;8.80;99.90;;;;;;4916017;29;20712;-65
2022/12/20 13:04:20;;;;;;;8.55;6.35;;;8.80;99.90;;;;;;4915146;29;20241;-63
2022/12/20 13:07:01;;;;;;;7.30;6.50;;;8.80;99.90;;;;;;4915587;29;20769;-62
2022/12/20 13:09:27;;;;;;;10.23;7.88;;;8.80;99.90;;;;;;4915577;29;20653;-70
2022/12/20 13:11:54;;;;;;;6.67;5.97;;;8.80;99.90;;;;;;4915987;29;20269;-64
2022/12/20 13:14:23;;;;;;;7.13;6.00;;;8.80;99.90;;;;;;4914927;29;20202;-66
2022/12/20 13:16:58;;;;;;;5.72;5.20;;;8.90;99.90;;;;;;4914694;29;20522;-66
2022/12/20 13:19:24;;;;;;;7.43;5.70;;;8.90;99.90;;;;;;4915479;29;20169;-65
2022/12/20 13:22:06;;;;;;;7.23;5.63;;;8.90;99.90;;;;;;4915542;29;20198;-62
2022/12/20 13:24:36;;;;;;;7.65;5.63;;;8.90;99.90;;;;;;4914222;29;20198;-62
2022/12/20 13:27:14;;;;;;;5.95;5.35;;;8.80;99.90;;;;;;4896624;29;20206;-62
2022/12/20 13:29:55;;;;;;;6.18;5.57;;;8.70;99.90;;;;;;4896671;29;20614;-64
2022/12/20 13:32:45;;;;;;;6.10;5.20;;;8.80;99.90;;;;;;4896477;29;20175;-63
2022/12/20 13:35:23;;;;;;;6.18;5.18;;;8.70;99.90;;;;;;4905378;29;20209;-64
2022/12/20 13:38:30;;;;;;;7.68;5.57;;;8.70;99.90;;;;;;4962794;28;20261;-67
2022/12/20 13:41:00;;;;;;;6.35;5.85;;;8.70;99.90;;;;;;4948092;28;20199;-64
2022/12/20 13:43:40;;;;;;;6.22;5.68;;;8.70;99.90;;;;;;4955012;28;20222;-64
2022/12/20 13:46:12;;;;;;;5.00;4.55;;;8.70;99.90;;;;;;4955192;28;20590;-66
2022/12/20 13:48:57;;;;;;;6.35;4.50;;;8.70;99.90;;;;;;4954762;29;20196;-63
2022/12/20 13:51:25;;;;;;;4.18;3.50;;;8.80;99.90;;;;;;4960548;28;20157;-64
2022/12/20 13:54:00;;;;;;;3.90;3.50;;;8.80;99.90;;;;;;4968675;28;20200;-63
2022/12/20 13:56:25;;;;;;;7.05;3.45;;;9.00;99.90;;;;;;4954971;28;20192;-65
2022/12/20 13:59:03;;;;;;;3.67;3.27;;;9.20;99.90;;;;;;4954370;29;20686;-63
2022/12/20 14:01:30;;;;;;;5.03;4.50;;;9.30;99.90;;;;;;4955369;29;20243;-65
2022/12/20 14:03:56;;;;;;;5.00;4.55;;;9.50;99.90;;;;;;4954725;29;20200;-65
2022/12/20 14:06:23;;;;;;;7.32;6.03;;;9.50;99.90;;;;;;4955055;28;20227;-64
2022/12/20 14:08:50;;;;;;;4.38;3.97;;;9.40;99.90;;;;;;4955003;29;20212;-64
2022/12/20 14:11:27;;;;;;;5.25;4.88;;;9.40;99.90;;;;;;4955210;29;20189;-63
2022/12/20 14:14:02;;;;;;;6.22;5.78;;;9.30;99.90;;;;;;4961625;28;20203;-63
2022/12/20 14:16:31;;;;;;;6.05;5.53;;;9.30;99.90;;;;;;4973010;28;20176;-65
2022/12/20 14:18:56;;;;;;;7.88;5.90;;;9.10;99.90;;;;;;4973740;28;20660;-65
2022/12/20 14:21:23;;;;;;;6.50;5.90;;;9.00;99.90;;;;;;4974440;28;20181;-65
2022/12/20 14:23:51;;;;;;;6.90;6.25;;;9.00;99.90;;;;;;4973891;28;20233;-66
2022/12/20 14:26:29;;;;;;;8.45;5.70;;;8.90;99.90;;;;;;4974185;28;20180;-66
2022/12/20 14:29:00;;;;;;;7.22;5.40;;;8.80;99.90;;;;;;4972769;28;20634;-65
2022/12/20 14:31:31;;;;;;;8.20;5.55;;;8.70;99.90;;;;;;4974258;28;20199;-66
2022/12/20 14:34:15;;;;;;;8.80;6.38;;;8.60;99.90;;;;;;4973417;28;20208;-68
2022/12/20 14:36:46;;;;;;;7.35;5.10;;;8.50;99.90;;;;;;4974317;28;20250;-68
2022/12/20 14:39:25;;;;;;;7.57;6.45;;;8.50;99.90;;;;;;4974311;28;20260;-69
2022/12/20 14:41:59;;;;;;;13.88;6.05;;;8.40;99.90;;;;;;4973855;28;20175;-69
2022/12/20 14:44:27;;;;;;;6.80;5.88;;;8.40;99.90;;;;;;4973458;28;20214;-71
2022/12/20 14:46:58;;;;;;;9.25;7.13;;;8.40;99.90;;;;;;4973733;28;20590;-67
2022/12/20 14:49:29;;;;;;;6.60;6.00;;;8.40;99.90;;;;;;4974345;28;20528;-64
2022/12/20 14:52:35;;;;;;;9.90;6.85;;;8.30;99.90;;;;;;4974312;28;20195;-62
2022/12/20 14:55:18;;;;;;;8.52;7.47;;;8.30;99.90;;;;;;4944431;28;20598;-63
2022/12/20 14:57:51;;;;;;;9.38;7.60;;;8.20;99.90;;;;;;4973993;28;20168;-65
2022/12/20 15:00:16;;;;;;;8.77;7.40;;;8.10;99.90;;;;;;4973933;28;20192;-65
2022/12/20 15:02:48;;;;;;;11.33;7.27;;;8.00;99.90;;;;;;4974518;28;20175;-65
2022/12/20 15:05:41;;;;;;;8.70;6.78;;;8.00;99.90;;;;;;4976941;28;20243;-63
2022/12/20 15:08:10;;;;;;;9.05;8.15;;;7.90;99.90;;;;;;4970758;28;20204;-64
2022/12/20 15:10:36;;;;;;;9.23;7.90;;;7.80;99.90;;;;;;4977446;28;20179;-64
2022/12/20 15:13:02;;;;;;;11.63;7.43;;;7.80;99.90;;;;;;4976455;28;20582;-63
2022/12/20 15:15:27;;;;;;;9.27;7.53;;;7.80;99.90;;;;;;4977305;28;20442;-63
2022/12/20 15:17:53;;;;;;;7.10;6.40;;;7.80;99.90;;;;;;4977358;28;20172;-63
2022/12/20 15:20:20;;;;;;;12.30;8.03;;;7.70;99.90;;;;;;4977040;28;20235;-64
2022/12/20 15:22:46;;;;;;;8.23;7.35;;;7.70;99.90;;;;;;4976665;28;20180;-64
2022/12/20 15:25:16;;;;;;;8.67;7.77;;;7.70;99.90;;;;;;4977027;28;20243;-65
2022/12/20 15:27:43;;;;;;;7.78;6.88;;;7.70;99.90;;;;;;4976714;28;20477;-63
2022/12/20 15:30:12;;;;;;;9.80;7.28;;;7.70;99.90;;;;;;4957550;28;20194;-64
2022/12/20 15:32:39;;;;;;;9.70;7.03;;;7.70;99.90;;;;;;4956065;29;20180;-63
2022/12/20 15:35:05;;;;;;;9.65;6.75;;;7.70;99.90;;;;;;4957645;28;20559;-63
2022/12/20 15:37:30;;;;;;;7.40;6.50;;;7.60;99.90;;;;;;4957503;28;20185;-63
2022/12/20 15:39:56;;;;;;;6.73;6.03;;;7.60;99.90;;;;;;4966140;28;20186;-63
2022/12/20 15:42:23;;;;;;;8.40;7.10;;;7.60;99.90;;;;;;4976995;28;20182;-63
2022/12/20 15:44:49;;;;;;;11.63;7.57;;;7.60;99.90;;;;;;4976303;28;20691;-66
2022/12/20 15:47:15;;;;;;;8.05;7.10;;;7.60;99.90;;;;;;4976383;28;20279;-64
2022/12/20 15:49:40;;;;;;;8.43;7.57;;;7.60;99.90;;;;;;4976932;28;20312;-66
2022/12/20 15:52:15;;;;;;;9.00;7.60;;;7.60;99.90;;;;;;4975383;28;20426;-69
2022/12/20 15:54:40;;;;;;;13.00;8.18;;;7.60;99.90;;;;;;4975624;28;20744;-68
2022/12/20 15:57:10;;;;;;;7.63;6.93;;;7.50;99.90;;;;;;4976328;28;20219;-65
2022/12/20 15:59:36;;;;;;;9.48;6.97;;;7.60;99.90;;;;;;4975353;28;20203;-66
2022/12/20 16:02:01;;;;;;;8.43;7.47;;;7.50;99.90;;;;;;4975999;28;20211;-65
2022/12/20 16:04:30;;;;;;;7.80;6.97;;;7.50;99.90;;;;;;4976017;28;20194;-64
2022/12/20 16:06:55;;;;;;;9.20;6.15;;;7.60;99.90;;;;;;4975957;28;20239;-64
2022/12/20 16:09:24;;;;;;;9.00;6.47;;;7.60;99.90;;;;;;4975944;28;20180;-63
2022/12/20 16:11:50;;;;;;;7.90;6.25;;;7.60;99.90;;;;;;4976114;28;20191;-63
2022/12/20 16:14:19;;;;;;;7.63;6.70;;;7.60;99.90;;;;;;4960790;28;20193;-64
2022/12/20 16:16:47;;;;;;;6.68;6.05;;;7.60;99.90;;;;;;4972668;28;20259;-65
2022/12/20 16:19:13;;;;;;;6.28;5.38;;;7.60;99.90;;;;;;4976682;28;20227;-68
2022/12/20 16:21:45;;;;;;;6.20;5.47;;;7.60;99.90;;;;;;4978469;28;20562;-64
2022/12/20 16:24:13;;;;;;;10.50;6.50;;;7.70;99.90;;;;;;4978195;28;20184;-67
2022/12/20 16:26:39;;;;;;;9.30;6.70;;;7.70;99.90;;;;;;4981583;28;20176;-64
2022/12/20 16:29:05;;;;;;;7.83;6.40;;;7.70;99.90;;;;;;4979473;28;20175;-60
2022/12/20 16:31:36;;;;;;;7.40;5.30;;;7.80;99.90;;;;;;4981150;28;20184;-61
2022/12/20 16:34:05;;;;;;;8.15;6.47;;;7.90;99.90;;;;;;4975923;28;20188;-62
2022/12/20 16:36:32;;;;;;;9.75;5.30;;;7.90;99.90;;;;;;4979302;28;20642;-67
2022/12/20 16:38:58;;;;;;;4.45;4.05;;;8.00;99.90;;;;;;4979016;28;20188;-66
2022/12/20 16:41:26;;;;;;;3.83;3.53;;;8.20;99.90;;;;;;4978183;28;20221;-66
2022/12/20 16:43:54;;;;;;;5.05;4.30;;;8.40;99.90;;;;;;4976589;28;20452;-61
2022/12/20 16:46:22;;;;;;;3.47;3.03;;;8.60;99.90;;;;;;4975787;28;20271;-63
2022/12/20 16:48:48;;;;;;;5.00;3.20;;;8.70;99.90;;;;;;4975751;28;20566;-62
2022/12/20 16:51:38;;;;;;;4.13;2.67;;;8.90;99.90;;;;;;4975342;28;20210;-63
2022/12/20 16:54:07;;;;;;;3.70;3.40;;;9.10;99.90;;;;;;4974893;28;20192;-64
2022/12/20 16:56:32;;;;;;;4.00;3.60;;;9.30;99.90;;;;;;4975035;28;20172;-61
2022/12/20 16:59:01;;;;;;;7.00;3.43;;;9.30;99.90;;;;;;4975577;28;20191;-65
2022/12/20 17:01:35;;;;;;;4.78;4.20;;;9.40;99.90;;;;;;4974144;28;20183;-64
2022/12/20 17:04:01;;;;;;;5.97;4.43;;;9.50;99.90;;;;;;4974865;28;20671;-62
2022/12/20 17:06:27;;;;;;;5.07;3.97;;;9.50;99.90;;;;;;4965802;28;20189;-61
2022/12/20 17:08:54;;;;;;;6.00;5.40;;;9.40;99.90;;;;;;4954068;28;20203;-61
2022/12/20 17:11:30;;;;;;;8.70;5.70;;;9.30;99.90;;;;;;4955772;28;20427;-58
2022/12/20 17:13:57;;;;;;;6.35;5.32;;;9.30;99.90;;;;;;4952325;28;20232;-62
2022/12/20 17:16:23;;;;;;;5.97;5.43;;;9.20;99.90;;;;;;4954502;28;20172;-63
2022/12/20 17:18:51;;;;;;;7.65;4.80;;;9.20;99.90;;;;;;4957465;28;20195;-59
2022/12/20 17:21:33;;;;;;;6.20;4.85;;;9.10;99.90;;;;;;4956315;28;20260;-61
2022/12/20 17:23:59;;;;;;;5.60;5.05;;;9.00;99.90;;;;;;4948701;28;20204;-63
2022/12/20 17:26:27;;;;;;;8.47;5.07;;;9.00;99.90;;;;;;4966609;28;20192;-60
2022/12/20 17:28:59;;;;;;;6.28;5.20;;;9.00;99.90;;;;;;4956623;28;20213;-61
2022/12/20 17:31:25;;;;;;;7.43;6.05;;;8.90;99.90;;;;;;4955136;28;20177;-60
2022/12/20 17:33:50;;;;;;;4.33;4.03;;;8.80;99.90;;;;;;4954139;28;20308;-60
2022/12/20 17:36:16;;;;;;;5.37;4.87;;;8.70;99.90;;;;;;4955821;28;20183;-63
2022/12/20 17:38:42;;;;;;;7.97;5.30;;;8.80;99.90;;;;;;4953856;29;20432;-65
2022/12/20 17:41:21;;;;;;;5.18;3.85;;;8.80;99.90;;;;;;4963375;28;20431;-62
2022/12/20 17:43:46;;;;;;;3.40;3.10;;;8.80;99.90;;;;;;4974327;28;20202;-61
2022/12/20 17:46:12;;;;;;;4.60;4.07;;;8.80;99.90;;;;;;4965431;28;20188;-63
2022/12/20 17:48:38;;;;;;;4.13;3.83;;;8.90;99.90;;;;;;4954927;28;20216;-63
2022/12/20 17:51:13;;;;;;;5.23;3.93;;;9.00;99.90;;;;;;4958039;28;20176;-62
2022/12/20 17:53:39;;;;;;;4.75;3.03;;;9.10;99.90;;;;;;4984399;28;20424;-60
2022/12/20 17:56:04;;;;;;;4.63;4.13;;;9.30;99.90;;;;;;4961718;28;20254;-62
2022/12/20 17:58:30;;;;;;;6.63;4.10;;;9.40;99.90;;;;;;4970691;28;20348;-63
2022/12/20 18:00:56;;;;;;;4.77;4.27;;;9.40;99.90;;;;;;4964841;28;20542;-63
2022/12/20 18:03:21;;;;;;;5.90;5.50;;;9.60;99.90;;;;;;4960227;28;20192;-62
2022/12/20 18:05:47;;;;;;;5.60;4.63;;;9.70;99.90;;;;;;4957933;28;20215;-64
2022/12/20 18:08:12;;;;;;;3.97;3.33;;;9.70;99.90;;;;;;4974377;28;20204;-63
2022/12/20 18:10:38;;;;;;;6.60;3.67;;;9.80;99.90;;;;;;4970719;28;20160;-64
2022/12/20 18:13:03;;;;;;;4.20;3.03;;;9.90;99.90;;;;;;4954636;28;20216;-64
2022/12/20 18:15:29;;;;;;;3.80;3.30;;;10.00;99.90;;;;;;4955449;28;20535;-62
2022/12/20 18:17:55;;;;;;;3.07;2.87;;;10.10;99.90;;;;;;4973328;28;20203;-63
2022/12/20 18:20:20;;;;;;;4.60;4.00;;;10.20;99.90;;;;;;4974341;28;20730;-62
2022/12/20 18:22:46;;;;;;;4.50;4.20;;;10.20;99.90;;;;;;4966319;28;20185;-62
2022/12/20 18:25:12;;;;;;;7.57;5.20;;;10.10;99.90;;;;;;4954773;28;20659;-63